createdAt,value
2023-01-23T00:01:57.069Z,99.90
2023-01-23T00:04:42.555Z,99.90
2023-01-23T00:07:28.055Z,99.90
2023-01-23T00:10:13.600Z,99.90
2023-01-23T00:12:59.005Z,99.90
2023-01-23T00:15:44.699Z,99.90
2023-01-23T00:18:30.048Z,99.90
2023-01-23T00:21:18.910Z,99.90
2023-01-23T00:24:04.813Z,99.90
2023-01-23T00:26:50.268Z,99.90
2023-01-23T00:29:35.686Z,99.90
2023-01-23T00:32:21.803Z,99.90
2023-01-23T00:35:07.754Z,99.90
2023-01-23T00:37:53.071Z,99.90
2023-01-23T00:40:38.525Z,99.90
2023-01-23T00:43:25.777Z,99.90
2023-01-23T00:46:11.064Z,99.90
2023-01-23T00:48:57.926Z,99.90
2023-01-23T00:51:45.227Z,99.90
2023-01-23T00:54:30.489Z,99.90
2023-01-23T00:57:15.899Z,99.90
2023-01-23T01:00:03.655Z,99.90
2023-01-23T01:02:49.629Z,99.90
2023-01-23T01:05:35.593Z,99.90
2023-01-23T01:08:22.026Z,99.90
2023-01-23T01:11:07.783Z,99.90
2023-01-23T01:13:53.600Z,99.90
2023-01-23T01:16:45.061Z,99.90
2023-01-23T01:19:30.781Z,99.90
2023-01-23T01:22:16.202Z,99.90
2023-01-23T01:25:01.687Z,99.90
2023-01-23T01:27:47.424Z,99.90
2023-01-23T01:30:33.468Z,99.90
2023-01-23T01:33:19.378Z,99.90
2023-01-23T01:36:12.134Z,99.90
2023-01-23T01:38:57.598Z,99.90
2023-01-23T01:41:43.792Z,99.90
2023-01-23T01:44:59.916Z,99.90
2023-01-23T01:47:45.476Z,99.90
2023-01-23T01:50:31.941Z,99.90
2023-01-23T01:53:18.125Z,99.90
2023-01-23T01:56:05.615Z,99.90
2023-01-23T01:58:53.786Z,99.90
2023-01-23T02:01:42.344Z,99.90
2023-01-23T02:04:27.886Z,99.90
2023-01-23T02:07:27.739Z,99.90
2023-01-23T02:10:14.244Z,99.90
2023-01-23T02:13:22.790Z,99.90
2023-01-23T02:16:15.057Z,99.90
2023-01-23T02:19:05.219Z,99.90
2023-01-23T02:22:00.590Z,99.90
2023-01-23T02:24:59.397Z,99.90
2023-01-23T02:27:45.753Z,99.90
2023-01-23T02:30:32.177Z,99.90
2023-01-23T02:33:20.628Z,99.90
2023-01-23T02:36:08.903Z,99.90
2023-01-23T02:38:58.464Z,99.90
2023-01-23T02:41:49.422Z,99.90
2023-01-23T02:44:36.026Z,99.90
2023-01-23T02:47:23.043Z,99.90
2023-01-23T02:50:08.899Z,99.90
2023-01-23T02:52:54.767Z,99.90
2023-01-23T02:55:43.313Z,99.90
2023-01-23T02:58:47.646Z,99.90
2023-01-23T03:01:35.671Z,99.90
2023-01-23T03:04:21.807Z,99.90
2023-01-23T03:07:07.384Z,99.90
2023-01-23T03:09:52.594Z,99.90
2023-01-23T03:12:42.470Z,99.90
2023-01-23T03:15:28.373Z,99.90
2023-01-23T03:18:14.463Z,99.90
2023-01-23T03:21:04.773Z,99.90
2023-01-23T03:23:50.248Z,99.90
2023-01-23T03:26:41.212Z,99.90
2023-01-23T03:29:46.172Z,99.90
2023-01-23T03:32:33.694Z,99.90
2023-01-23T03:35:20.354Z,99.90
2023-01-23T03:38:07.192Z,99.90
2023-01-23T03:41:11.151Z,99.90
2023-01-23T03:43:57.232Z,99.90
2023-01-23T03:46:44.752Z,99.90
2023-01-23T03:49:30.295Z,99.90
2023-01-23T03:52:17.426Z,99.90
2023-01-23T03:55:03.210Z,99.90
2023-01-23T03:57:49.223Z,99.90
2023-01-23T04:00:34.741Z,99.90
2023-01-23T04:03:24.287Z,99.90
2023-01-23T04:06:11.254Z,99.90
2023-01-23T04:08:58.207Z,99.90
2023-01-23T04:11:44.055Z,99.90
2023-01-23T04:14:33.088Z,99.90
2023-01-23T04:17:18.706Z,99.90
2023-01-23T04:20:05.017Z,99.90
2023-01-23T04:22:50.850Z,99.90
2023-01-23T04:25:37.252Z,99.90
2023-01-23T04:28:23.290Z,99.90
2023-01-23T04:31:09.561Z,99.90
2023-01-23T04:33:55.014Z,99.90
2023-01-23T04:36:41.588Z,99.90
2023-01-23T04:39:27.024Z,99.90
2023-01-23T04:42:12.440Z,99.90
2023-01-23T04:45:16.172Z,99.90
2023-01-23T04:48:31.969Z,99.90
2023-01-23T04:51:17.536Z,99.90
2023-01-23T04:54:04.269Z,99.90
2023-01-23T04:56:51.164Z,99.90
2023-01-23T04:59:38.240Z,99.90
2023-01-23T05:02:23.745Z,99.90
2023-01-23T05:05:09.580Z,99.90
2023-01-23T05:07:56.028Z,99.90
2023-01-23T05:10:42.112Z,99.90
2023-01-23T05:13:30.037Z,99.90
2023-01-23T05:16:16.152Z,99.90
2023-01-23T05:19:24.908Z,99.90
2023-01-23T05:22:11.411Z,99.50
2023-01-23T05:24:56.707Z,99.90
2023-01-23T05:27:45.692Z,99.60
2023-01-23T05:30:31.574Z,99.60
2023-01-23T05:33:32.982Z,99.20
2023-01-23T05:36:18.787Z,99.00
2023-01-23T05:39:04.585Z,99.10
2023-01-23T05:41:50.880Z,99.40
2023-01-23T05:44:50.149Z,99.20
2023-01-23T05:47:56.010Z,98.90
2023-01-23T05:50:41.924Z,99.10
2023-01-23T05:53:27.725Z,98.90
2023-01-23T05:56:14.253Z,99.60
2023-01-23T05:59:22.836Z,99.50
2023-01-23T06:02:33.525Z,99.10
2023-01-23T06:05:37.443Z,99.50
2023-01-23T06:08:31.461Z,99.10
2023-01-23T06:11:18.478Z,97.90
2023-01-23T06:14:04.246Z,97.70
2023-01-23T06:16:49.560Z,97.50
2023-01-23T06:19:35.250Z,97.40
2023-01-23T06:22:21.701Z,98.00
2023-01-23T06:25:22.830Z,97.30
2023-01-23T06:28:10.340Z,97.20
2023-01-23T06:31:01.885Z,97.40
2023-01-23T06:33:56.131Z,97.70
2023-01-23T06:36:47.986Z,97.30
2023-01-23T06:39:34.319Z,96.50
2023-01-23T06:42:21.116Z,97.20
2023-01-23T06:45:10.621Z,96.50
2023-01-23T06:47:56.083Z,97.00
2023-01-23T06:50:42.371Z,97.00
2023-01-23T06:53:27.719Z,97.00
2023-01-23T06:56:14.831Z,96.20
2023-01-23T06:59:00.733Z,95.60
2023-01-23T07:01:51.630Z,96.00
2023-01-23T07:04:51.778Z,95.70
2023-01-23T07:07:36.976Z,96.10
2023-01-23T07:10:23.413Z,94.60
2023-01-23T07:13:11.474Z,94.50
2023-01-23T07:15:57.913Z,95.70
2023-01-23T07:18:43.586Z,95.40
2023-01-23T07:21:30.489Z,96.00
2023-01-23T07:24:15.972Z,96.00
2023-01-23T07:27:01.273Z,96.40
2023-01-23T07:29:46.834Z,96.40
2023-01-23T07:32:32.192Z,96.20
2023-01-23T07:35:17.795Z,95.70
2023-01-23T07:38:03.156Z,95.60
2023-01-23T07:40:49.507Z,95.50
2023-01-23T07:43:34.816Z,96.30
2023-01-23T07:46:20.550Z,95.60
2023-01-23T07:49:06.235Z,96.80
2023-01-23T07:51:51.663Z,95.80
2023-01-23T07:54:37.279Z,95.30
2023-01-23T07:57:22.655Z,95.60
2023-01-23T08:00:10.311Z,95.80
2023-01-23T08:02:58.813Z,95.30
2023-01-23T08:05:49.650Z,95.50
2023-01-23T08:08:34.940Z,94.90
2023-01-23T08:11:20.374Z,95.50
2023-01-23T08:14:06.656Z,95.80
2023-01-23T08:16:52.963Z,95.10
2023-01-23T08:19:38.240Z,95.50
2023-01-23T08:22:23.708Z,93.90
2023-01-23T08:25:10.699Z,94.20
2023-01-23T08:27:56.385Z,94.80
2023-01-23T08:30:41.814Z,94.60
2023-01-23T08:33:27.238Z,94.80
2023-01-23T08:36:13.603Z,95.10
2023-01-23T08:39:00.108Z,94.70
2023-01-23T08:41:46.213Z,94.70
2023-01-23T08:44:34.145Z,94.70
2023-01-23T08:47:19.508Z,95.50
2023-01-23T08:50:05.903Z,95.10
2023-01-23T08:52:51.146Z,94.30
2023-01-23T08:55:38.328Z,94.90
2023-01-23T08:58:23.541Z,95.10
2023-01-23T09:01:23.957Z,95.40
2023-01-23T09:04:09.660Z,95.10
2023-01-23T09:06:55.137Z,93.60
2023-01-23T09:09:40.614Z,95.10
2023-01-23T09:12:26.156Z,95.10
2023-01-23T09:15:11.853Z,94.80
2023-01-23T09:17:57.469Z,95.40
2023-01-23T09:20:43.184Z,94.30
2023-01-23T09:23:28.616Z,95.40
2023-01-23T09:26:15.209Z,95.10
2023-01-23T09:29:01.642Z,96.10
2023-01-23T09:31:47.385Z,95.00
2023-01-23T09:34:32.860Z,95.00
2023-01-23T09:37:18.458Z,96.60
2023-01-23T09:40:04.177Z,95.10
2023-01-23T09:42:51.632Z,95.60
2023-01-23T09:45:38.331Z,96.70
2023-01-23T09:48:31.777Z,96.20
2023-01-23T09:51:17.129Z,96.10
2023-01-23T09:54:16.193Z,96.40
2023-01-23T09:57:13.082Z,95.80
2023-01-23T10:00:10.912Z,96.50
2023-01-23T10:02:56.966Z,97.10
2023-01-23T10:06:20.010Z,97.70
2023-01-23T10:09:27.604Z,97.80
2023-01-23T10:12:43.060Z,97.90
2023-01-23T10:15:53.759Z,97.60
2023-01-23T10:18:58.612Z,97.90
2023-01-23T10:22:33.490Z,97.50
2023-01-23T10:25:26.531Z,97.50
2023-01-23T10:28:23.882Z,96.10
2023-01-23T10:31:32.669Z,97.90
2023-01-23T10:34:51.994Z,96.70
2023-01-23T10:37:50.742Z,97.60
2023-01-23T10:40:54.274Z,96.40
2023-01-23T10:43:44.571Z,96.40
2023-01-23T10:46:32.556Z,95.10
2023-01-23T10:49:28.151Z,96.10
2023-01-23T10:52:33.856Z,94.90
2023-01-23T10:55:19.712Z,94.20
2023-01-23T10:58:06.827Z,96.20
2023-01-23T11:00:53.011Z,94.80
2023-01-23T11:03:38.725Z,94.20
2023-01-23T11:06:28.324Z,94.20
2023-01-23T11:09:20.675Z,94.40
2023-01-23T11:12:14.837Z,94.80
2023-01-23T11:15:27.542Z,94.60
2023-01-23T11:18:31.255Z,94.50
2023-01-23T11:21:24.409Z,94.00
2023-01-23T11:24:30.610Z,95.40
2023-01-23T11:27:31.061Z,94.90
2023-01-23T11:30:30.300Z,94.10
2023-01-23T11:33:34.629Z,93.60
2023-01-23T11:36:19.915Z,94.50
2023-01-23T11:39:26.645Z,93.30
2023-01-23T11:42:13.494Z,91.80
2023-01-23T11:44:59.977Z,90.80
2023-01-23T11:48:00.406Z,90.80
2023-01-23T11:51:02.559Z,91.00
2023-01-23T11:54:03.258Z,90.60
2023-01-23T11:57:02.467Z,91.70
2023-01-23T11:59:55.973Z,92.50
2023-01-23T12:03:05.993Z,92.00
2023-01-23T12:06:20.232Z,92.10
2023-01-23T12:09:10.901Z,92.20
2023-01-23T12:12:34.252Z,92.60
2023-01-23T12:15:44.287Z,93.60
2023-01-23T12:18:42.585Z,92.80
2023-01-23T12:22:05.694Z,92.20
2023-01-23T12:24:53.689Z,91.90
2023-01-23T12:27:48.259Z,91.30
2023-01-23T12:30:50.938Z,92.10
2023-01-23T12:34:00.617Z,92.60
2023-01-23T12:37:12.351Z,93.00
2023-01-23T12:40:26.694Z,92.30
2023-01-23T12:43:33.821Z,93.60
2023-01-23T12:46:28.913Z,93.30
2023-01-23T12:49:33.654Z,92.50
2023-01-23T12:52:43.890Z,93.30
2023-01-23T12:55:56.833Z,93.00
2023-01-23T12:58:50.683Z,92.70
2023-01-23T13:01:54.725Z,92.90
2023-01-23T13:05:30.188Z,92.80
2023-01-23T13:08:37.854Z,92.10
2023-01-23T13:11:42.829Z,92.60
2023-01-23T13:14:36.837Z,93.20
2023-01-23T13:17:48.776Z,92.50
2023-01-23T13:21:12.839Z,92.90
2023-01-23T13:24:46.549Z,93.10
2023-01-23T13:27:52.166Z,93.10
2023-01-23T13:30:39.360Z,92.90
2023-01-23T13:33:34.296Z,92.90
2023-01-23T13:36:31.686Z,92.40
2023-01-23T13:39:17.054Z,93.70
2023-01-23T13:42:15.024Z,93.90
2023-01-23T13:45:27.518Z,93.40
2023-01-23T14:24:22.419Z,94.20
2023-01-23T14:27:09.546Z,93.40
2023-01-23T14:30:01.323Z,93.70
2023-01-23T14:32:46.835Z,93.80
2023-01-23T14:35:33.106Z,94.40
2023-01-23T14:38:26.689Z,93.50
2023-01-23T14:41:12.674Z,94.20
2023-01-23T14:44:00.508Z,94.40
2023-01-23T14:46:46.683Z,93.80
2023-01-23T14:49:35.275Z,93.80
2023-01-23T14:52:26.936Z,94.10
2023-01-23T14:55:33.125Z,94.10
2023-01-23T14:58:24.570Z,93.90
2023-01-23T15:01:11.029Z,93.70
2023-01-23T15:04:00.569Z,94.20
2023-01-23T15:06:53.552Z,94.10
2023-01-23T15:09:45.710Z,94.50
2023-01-23T15:12:31.623Z,94.60
2023-01-23T15:15:22.760Z,94.60
2023-01-23T15:18:24.351Z,94.50
2023-01-23T15:21:09.709Z,95.80
2023-01-23T15:24:03.280Z,94.90
2023-01-23T15:26:59.373Z,95.20
2023-01-23T15:29:44.761Z,95.80
2023-01-23T15:32:30.076Z,95.20
2023-01-23T15:35:17.713Z,95.90
2023-01-23T15:38:05.398Z,95.90
2023-01-23T15:40:51.778Z,95.60
2023-01-23T15:43:37.274Z,95.90
2023-01-23T15:46:22.721Z,96.10
2023-01-23T15:49:16.456Z,96.10
2023-01-23T15:52:28.466Z,96.10
2023-01-23T15:55:15.022Z,95.80
2023-01-23T15:58:01.933Z,95.90
2023-01-23T16:00:48.676Z,96.00
2023-01-23T16:03:34.072Z,96.30
2023-01-23T16:06:21.346Z,96.40
2023-01-23T16:09:07.398Z,96.00
2023-01-23T16:11:53.397Z,96.00
2023-01-23T16:14:38.918Z,96.70
2023-01-23T16:17:25.230Z,97.10
2023-01-23T16:20:19.189Z,96.40
2023-01-23T16:23:24.538Z,96.70
2023-01-23T16:26:29.596Z,96.90
2023-01-23T16:29:28.363Z,97.10
2023-01-23T16:32:14.105Z,96.50
2023-01-23T16:34:59.432Z,96.60
2023-01-23T16:37:47.421Z,96.60
2023-01-23T16:40:34.222Z,96.90
2023-01-23T16:43:21.382Z,97.00
2023-01-23T16:46:07.095Z,97.50
2023-01-23T16:48:54.760Z,97.30
2023-01-23T16:51:43.350Z,97.50
2023-01-23T16:54:35.788Z,97.90
2023-01-23T16:57:30.879Z,97.60
2023-01-23T17:00:34.038Z,97.60
2023-01-23T17:03:23.545Z,97.50
2023-01-23T17:06:14.200Z,97.80
2023-01-23T17:08:59.798Z,97.80
2023-01-23T17:11:53.267Z,97.90
2023-01-23T17:14:42.263Z,98.20
2023-01-23T17:17:35.729Z,98.20
2023-01-23T17:20:21.405Z,98.40
2023-01-23T17:23:06.984Z,98.60
2023-01-23T17:26:00.510Z,99.10
2023-01-23T17:28:46.704Z,99.30
2023-01-23T17:31:32.998Z,99.10
2023-01-23T17:34:24.357Z,99.10
2023-01-23T17:37:20.580Z,99.50
2023-01-23T17:40:07.735Z,99.40
2023-01-23T17:42:53.814Z,99.60
2023-01-23T17:45:40.856Z,99.40
2023-01-23T17:48:32.574Z,99.30
2023-01-23T17:51:19.659Z,99.20
2023-01-23T17:54:05.677Z,99.60
2023-01-23T17:56:53.508Z,99.60
2023-01-23T17:59:38.768Z,99.70
2023-01-23T18:02:27.666Z,99.80
2023-01-23T18:05:17.680Z,99.40
2023-01-23T18:08:03.229Z,99.40
2023-01-23T18:10:52.544Z,99.00
2023-01-23T18:14:15.586Z,99.30
2023-01-23T18:17:01.709Z,99.50
2023-01-23T18:19:47.554Z,99.50
2023-01-23T18:22:33.307Z,99.50
2023-01-23T18:25:21.538Z,99.20
2023-01-23T18:28:14.595Z,99.60
2023-01-23T18:31:07.304Z,99.60
2023-01-23T18:34:30.932Z,99.90
2023-01-23T18:37:27.153Z,99.60
2023-01-23T18:40:32.550Z,99.70
2023-01-23T18:43:48.506Z,99.90
2023-01-23T18:46:34.518Z,99.90
2023-01-23T18:49:32.365Z,99.40
2023-01-23T18:53:08.551Z,99.70
2023-01-23T18:56:14.163Z,99.90
2023-01-23T18:59:14.361Z,99.90
2023-01-23T19:02:15.364Z,99.90
2023-01-23T19:05:19.114Z,99.90
2023-01-23T19:08:04.934Z,99.90
2023-01-23T19:10:50.543Z,99.90
2023-01-23T19:13:47.534Z,99.90
2023-01-23T19:16:37.296Z,99.90
2023-01-23T19:19:30.377Z,99.90
2023-01-23T19:22:18.689Z,99.90
2023-01-23T19:25:04.947Z,99.90
2023-01-23T19:27:52.845Z,99.90
2023-01-23T19:30:39.126Z,99.90
2023-01-23T19:33:24.942Z,99.90
2023-01-23T19:36:12.824Z,99.90
2023-01-23T19:39:06.621Z,99.90
2023-01-23T19:41:53.208Z,99.90
2023-01-23T19:44:39.011Z,99.90
2023-01-23T19:47:24.394Z,99.90
2023-01-23T19:50:15.644Z,99.90
2023-01-23T19:53:01.442Z,99.90
2023-01-23T19:55:46.970Z,99.90
2023-01-23T19:58:32.969Z,99.90
2023-01-23T20:01:27.046Z,99.90
2023-01-23T20:04:15.925Z,99.90
2023-01-23T20:07:01.407Z,99.90
2023-01-23T20:09:47.018Z,99.90
2023-01-23T20:12:38.772Z,99.90
2023-01-23T20:15:25.730Z,99.90
2023-01-23T20:18:11.649Z,99.90
2023-01-23T20:21:00.095Z,99.90
2023-01-23T20:23:46.922Z,99.90
2023-01-23T20:26:32.736Z,99.90
2023-01-23T20:29:18.104Z,99.90
2023-01-23T20:32:03.860Z,99.90
2023-01-23T20:34:49.625Z,99.90
2023-01-23T20:37:35.150Z,99.90
2023-01-23T20:40:20.870Z,99.90
2023-01-23T20:43:06.524Z,99.90
2023-01-23T20:45:53.040Z,99.90
2023-01-23T20:48:39.667Z,99.90
2023-01-23T20:51:26.337Z,99.90
2023-01-23T20:54:11.958Z,99.90
2023-01-23T20:56:57.339Z,99.90
2023-01-23T20:59:42.709Z,99.90
2023-01-23T21:02:30.302Z,99.90
2023-01-23T21:05:15.976Z,99.90
2023-01-23T21:08:01.765Z,99.90
2023-01-23T21:10:47.489Z,99.90
2023-01-23T21:13:34.796Z,99.90
2023-01-23T21:16:20.611Z,99.90
2023-01-23T21:19:06.560Z,99.90
2023-01-23T21:21:52.007Z,99.90
2023-01-23T21:24:37.707Z,99.90
2023-01-23T21:27:25.173Z,99.90
2023-01-23T21:30:11.851Z,99.90
2023-01-23T21:32:57.383Z,99.90
2023-01-23T21:35:50.816Z,99.90
2023-01-23T21:38:36.070Z,99.90
2023-01-23T21:41:22.394Z,99.90
2023-01-23T21:44:09.970Z,99.90
2023-01-23T21:46:55.396Z,99.90
2023-01-23T21:49:40.939Z,99.90
2023-01-23T21:52:26.999Z,99.90
2023-01-23T21:55:12.278Z,99.90
2023-01-23T21:57:58.284Z,99.90
2023-01-23T22:01:02.141Z,99.90
2023-01-23T22:03:47.611Z,99.90
2023-01-23T22:06:35.702Z,99.90
2023-01-23T22:09:22.523Z,99.90
2023-01-23T22:12:07.984Z,99.90
2023-01-23T22:14:54.572Z,99.90
2023-01-23T22:17:40.047Z,99.90
2023-01-23T22:20:25.702Z,99.90
2023-01-23T22:23:11.460Z,99.90
2023-01-23T22:26:00.113Z,99.90
2023-01-23T22:28:46.169Z,99.90
2023-01-23T22:31:31.788Z,99.90
2023-01-23T22:34:17.316Z,99.90
2023-01-23T22:37:02.898Z,99.90
2023-01-23T22:39:48.955Z,99.90
2023-01-23T22:42:35.022Z,99.90
2023-01-23T22:45:20.831Z,99.90
2023-01-23T22:48:06.657Z,99.90
2023-01-23T22:50:52.220Z,99.90
2023-01-23T22:53:37.713Z,99.90
2023-01-23T22:56:24.342Z,99.90
2023-01-23T22:59:09.723Z,99.90
2023-01-23T23:01:55.226Z,99.90
2023-01-23T23:04:40.787Z,99.90
2023-01-23T23:07:26.040Z,99.90
2023-01-23T23:10:12.624Z,99.90
2023-01-23T23:12:58.266Z,99.90
2023-01-23T23:15:43.630Z,99.90
2023-01-23T23:18:29.360Z,99.90
2023-01-23T23:21:18.534Z,99.90
2023-01-23T23:24:07.105Z,99.90
2023-01-23T23:26:52.771Z,99.90
2023-01-23T23:29:38.208Z,99.90
2023-01-23T23:32:23.693Z,99.90
2023-01-23T23:35:09.618Z,99.90
2023-01-23T23:37:54.880Z,99.90
2023-01-23T23:40:41.153Z,99.90
2023-01-23T23:43:27.232Z,99.90
2023-01-23T23:46:13.953Z,99.90
2023-01-23T23:48:59.403Z,99.90
2023-01-23T23:51:44.985Z,99.90
2023-01-23T23:54:30.329Z,99.90
2023-01-23T23:57:15.759Z,99.90
